Time;durP1;ratioP1;P1;durP2;ratioP2;P2;SDS_P1;SDS_P2;PMS_P1;PMS_P2;Temp;Humidity;BMP_temperature;BMP_pressure;BME280_temperature;BME280_humidity;BME280_pressure;Samples;Min_cycle;Max_cycle;Signal;HPM_P1;HPM_P2
2022/12/03 00:00:35;;;;;;;;;;;8.90;99.90;;;;;;5110356;28;19918;-69
2022/12/03 00:03:01;;;;;;;;;;;8.90;99.90;;;;;;5104362;27;19916;-69
2022/12/03 00:05:26;;;;;;;;;;;8.90;99.90;;;;;;5110315;28;19978;-68
2022/12/03 00:07:52;;;;;;;;;;;9.00;99.90;;;;;;5101017;27;19915;-69
2022/12/03 00:10:17;;;;;;;;;;;9.00;99.90;;;;;;5101263;27;20027;-69
2022/12/03 00:12:43;;;;;;;;;;;9.00;99.90;;;;;;5108059;28;20328;-69
2022/12/03 00:15:09;;;;;;;;;;;8.90;99.90;;;;;;5101516;27;20398;-69
2022/12/03 00:17:35;;;;;;;;;;;8.90;99.90;;;;;;5097896;27;20003;-68
2022/12/03 00:20:00;;;;;;;;;;;8.90;99.90;;;;;;5104272;27;20426;-69
2022/12/03 00:22:26;;;;;;;;;;;8.80;99.90;;;;;;5112164;28;19916;-68
2022/12/03 00:24:52;;;;;;;;;;;8.80;99.90;;;;;;5090303;28;19908;-68
2022/12/03 00:27:17;;;;;;;;;;;8.70;99.90;;;;;;5114377;28;19918;-69
2022/12/03 00:29:43;;;;;;;;;;;8.70;99.90;;;;;;5114953;28;19978;-69
2022/12/03 00:32:09;;;;;;;;;;;8.70;99.90;;;;;;5114005;28;20014;-69
2022/12/03 00:34:34;;;;;;;;;;;8.80;99.90;;;;;;5113495;28;20367;-69
2022/12/03 00:37:00;;;;;;;;;;;8.80;99.90;;;;;;5114675;28;20268;-69
2022/12/03 00:39:26;;;;;;;;;;;8.80;99.90;;;;;;5100479;27;20194;-69
2022/12/03 00:41:52;;;;;;;;;;;8.90;99.90;;;;;;5100106;28;20105;-69
2022/12/03 00:44:17;;;;;;;;;;;8.90;99.90;;;;;;5101198;27;20378;-68
2022/12/03 00:46:43;;;;;;;;;;;8.70;99.90;;;;;;5100650;27;19916;-68
2022/12/03 00:49:08;;;;;;;;;;;8.70;99.90;;;;;;5096406;28;20137;-68
2022/12/03 00:51:34;;;;;;;;;;;8.70;99.90;;;;;;5097894;27;19943;-68
2022/12/03 00:54:00;;;;;;;;;;;8.70;99.90;;;;;;5100908;27;19912;-68
2022/12/03 00:56:26;;;;;;;;;;;8.60;99.90;;;;;;5105151;27;19912;-69
2022/12/03 00:58:51;;;;;;;;;;;8.60;99.90;;;;;;5097270;28;21260;-68
2022/12/03 01:01:17;;;;;;;;;;;8.60;99.90;;;;;;5104556;27;19915;-69
2022/12/03 01:03:43;;;;;;;;;;;8.70;99.90;;;;;;5106629;28;20295;-69
2022/12/03 01:06:08;;;;;;;;;;;8.70;99.90;;;;;;5081181;28;20350;-69
2022/12/03 01:08:34;;;;;;;;;;;8.80;99.90;;;;;;5104713;28;19968;-69
2022/12/03 01:11:00;;;;;;;;;;;8.80;99.90;;;;;;5103427;28;19923;-69
2022/12/03 01:13:25;;;;;;;;;;;8.90;99.90;;;;;;5101887;27;20963;-69
2022/12/03 01:15:52;;;;;;;;;;;8.80;99.90;;;;;;5100986;27;20003;-69
2022/12/03 01:18:18;;;;;;;;;;;8.80;99.90;;;;;;5100705;28;20297;-68
2022/12/03 01:20:43;;;;;;;;;;;8.80;99.90;;;;;;5101639;27;20166;-69
2022/12/03 01:23:09;;;;;;;;;;;8.80;99.90;;;;;;5110762;28;19912;-68
2022/12/03 01:25:35;;;;;;;;;;;8.80;99.90;;;;;;5108219;28;19919;-69
2022/12/03 01:28:00;;;;;;;;;;;8.80;99.90;;;;;;5103839;28;19923;-68
2022/12/03 01:30:26;;;;;;;;;;;8.80;99.90;;;;;;5113703;28;20015;-68
2022/12/03 01:32:52;;;;;;;;;;;8.70;99.90;;;;;;5113949;28;19908;-68
2022/12/03 01:35:17;;;;;;;;;;;8.70;99.90;;;;;;5113145;28;20003;-69
2022/12/03 01:37:43;;;;;;;;;;;8.80;99.90;;;;;;5113161;28;19908;-69
2022/12/03 01:40:10;;;;;;;;;;;8.80;99.90;;;;;;5112583;28;19908;-69
2022/12/03 01:42:38;;;;;;;;;;;8.80;99.90;;;;;;5093903;28;20013;-69
2022/12/03 01:45:04;;;;;;;;;;;8.80;99.90;;;;;;5092965;28;20421;-67
2022/12/03 01:47:31;;;;;;;;;;;8.80;99.90;;;;;;5093086;28;19912;-69
2022/12/03 01:50:13;;;;;;;;;;;8.80;99.90;;;;;;5107138;28;20360;-68
2022/12/03 01:52:39;;;;;;;;;;;8.80;99.90;;;;;;5106595;28;19908;-68
2022/12/03 01:55:18;;;;;;;;;;;8.80;99.90;;;;;;5111829;28;19915;-68
2022/12/03 01:57:46;;;;;;;;;;;8.70;99.90;;;;;;5095387;28;19923;-68
2022/12/03 02:00:18;;;;;;;;;;;8.70;99.90;;;;;;5111958;28;19951;-68
2022/12/03 02:02:45;;;;;;;;;;;8.70;99.90;;;;;;5100390;28;19947;-68
2022/12/03 02:05:16;;;;;;;;;;;8.70;99.90;;;;;;5101871;28;20090;-68
2022/12/03 02:07:42;;;;;;;;;;;8.70;99.90;;;;;;5099315;28;20364;-68
2022/12/03 02:10:10;;;;;;;;;;;8.70;99.90;;;;;;5103155;28;19918;-69
2022/12/03 02:12:39;;;;;;;;;;;8.70;99.90;;;;;;5098246;28;19916;-68
2022/12/03 02:15:05;;;;;;;;;;;8.70;99.90;;;;;;5100799;28;19911;-69
2022/12/03 02:17:31;;;;;;;;;;;8.70;99.90;;;;;;5100831;28;20320;-69
2022/12/03 02:19:57;;;;;;;;;;;8.60;99.90;;;;;;5098834;28;19916;-68
2022/12/03 02:22:30;;;;;;;;;;;8.60;99.90;;;;;;5109224;27;19912;-68
2022/12/03 02:25:12;;;;;;;;;;;8.50;99.90;;;;;;5098103;28;19915;-69
2022/12/03 02:27:38;;;;;;;;;;;8.50;99.90;;;;;;5117432;28;19920;-68
2022/12/03 02:30:05;;;;;;;;;;;8.50;99.90;;;;;;5117112;28;20255;-68
2022/12/03 02:32:31;;;;;;;;;;;8.40;99.90;;;;;;5116138;28;19912;-68
2022/12/03 02:34:56;;;;;;;;;;;8.40;99.90;;;;;;5116144;28;19999;-68
2022/12/03 02:37:24;;;;;;;;;;;8.40;99.90;;;;;;5132858;27;19920;-68
2022/12/03 02:39:52;;;;;;;;;;;8.30;99.90;;;;;;5114906;28;20275;-68
2022/12/03 02:42:36;;;;;;;;;;;8.30;99.90;;;;;;5096898;28;19908;-68
2022/12/03 02:45:05;;;;;;;;;;;8.30;99.90;;;;;;5096401;28;19959;-69
2022/12/03 02:47:31;;;;;;;;;;;8.30;99.90;;;;;;5096460;28;19911;-69
2022/12/03 02:49:57;;;;;;;;;;;8.30;99.90;;;;;;5103233;27;20384;-68
2022/12/03 02:52:23;;;;;;;;;;;8.30;99.90;;;;;;5110899;27;19916;-69
2022/12/03 02:54:49;;;;;;;;;;;8.30;99.90;;;;;;5104816;28;20264;-69
2022/12/03 02:57:15;;;;;;;;;;;8.20;99.90;;;;;;5102447;27;21769;-69
2022/12/03 02:59:41;;;;;;;;;;;8.30;99.90;;;;;;5105222;27;19966;-69
2022/12/03 03:02:07;;;;;;;;;;;8.30;99.90;;;;;;5105920;27;20402;-69
2022/12/03 03:04:32;;;;;;;;;;;8.20;99.90;;;;;;5104280;27;20279;-68
2022/12/03 03:06:58;;;;;;;;;;;8.20;99.90;;;;;;5106176;27;19994;-68
2022/12/03 03:09:24;;;;;;;;;;;8.20;99.90;;;;;;5101632;27;20309;-68
2022/12/03 03:11:49;;;;;;;;;;;8.20;99.90;;;;;;5103928;27;19920;-68
2022/12/03 03:14:15;;;;;;;;;;;8.20;99.90;;;;;;5103124;27;20426;-69
2022/12/03 03:16:41;;;;;;;;;;;8.20;99.90;;;;;;5102165;28;19912;-69
2022/12/03 03:19:06;;;;;;;;;;;8.20;99.90;;;;;;5104145;27;20283;-67
2022/12/03 03:21:32;;;;;;;;;;;8.20;99.90;;;;;;5105157;27;19920;-68
2022/12/03 03:23:58;;;;;;;;;;;8.20;99.90;;;;;;5106006;27;19914;-68
2022/12/03 03:26:24;;;;;;;;;;;8.30;99.90;;;;;;5114153;28;19985;-69
2022/12/03 03:28:50;;;;;;;;;;;8.30;99.90;;;;;;5115338;28;20079;-69
2022/12/03 03:31:18;;;;;;;;;;;8.20;99.90;;;;;;5104801;27;19912;-69
2022/12/03 03:33:44;;;;;;;;;;;8.30;99.90;;;;;;5095058;28;19908;-69
2022/12/03 03:36:11;;;;;;;;;;;8.30;99.90;;;;;;5102213;28;19951;-68
2022/12/03 03:38:37;;;;;;;;;;;8.30;99.90;;;;;;5115641;28;19998;-68
2022/12/03 03:41:03;;;;;;;;;;;8.30;99.90;;;;;;5098105;28;19955;-68
2022/12/03 03:43:29;;;;;;;;;;;8.20;99.90;;;;;;5114606;28;19965;-68
2022/12/03 03:45:55;;;;;;;;;;;8.30;99.90;;;;;;5114697;28;19915;-68
2022/12/03 03:48:21;;;;;;;;;;;8.30;99.90;;;;;;5114935;28;19927;-69
2022/12/03 03:50:47;;;;;;;;;;;8.30;99.90;;;;;;5110307;27;19916;-69
2022/12/03 03:53:13;;;;;;;;;;;8.40;99.90;;;;;;5109335;28;19915;-69
2022/12/03 03:55:39;;;;;;;;;;;8.40;99.90;;;;;;5112623;27;19912;-69
2022/12/03 03:58:05;;;;;;;;;;;8.40;99.90;;;;;;5112138;28;19915;-69
2022/12/03 04:00:30;;;;;;;;;;;8.40;99.90;;;;;;5112945;27;19992;-69
2022/12/03 04:02:56;;;;;;;;;;;8.40;99.90;;;;;;5113903;28;19912;-69
2022/12/03 04:05:22;;;;;;;;;;;8.40;99.90;;;;;;5112863;28;20295;-69
2022/12/03 04:07:48;;;;;;;;;;;8.40;99.90;;;;;;5114442;28;19918;-69
2022/12/03 04:12:59;;;;;;;;;;;8.50;99.90;;;;;;5113558;28;19957;-69
2022/12/03 04:15:24;;;;;;;;;;;8.50;99.90;;;;;;5109139;28;19924;-68
2022/12/03 04:20:35;;;;;;;;;;;8.50;99.90;;;;;;5112347;28;19918;-68
2022/12/03 04:23:00;;;;;;;;;;;8.50;99.90;;;;;;5111803;28;20030;-68
2022/12/03 04:30:54;;;;;;;;;;;8.40;99.90;;;;;;5107701;28;19924;-68
2022/12/03 04:36:04;;;;;;;;;;;8.40;99.90;;;;;;5112265;28;19918;-68
2022/12/03 04:38:29;;;;;;;;;;;8.40;99.90;;;;;;5114107;28;19908;-69
2022/12/03 04:41:04;;;;;;;;;;;8.40;99.90;;;;;;5113870;28;19908;-69
2022/12/03 04:43:31;;;;;;;;;;;8.40;99.90;;;;;;5094073;28;19977;-69
2022/12/03 04:45:57;;;;;;;;;;;8.50;99.90;;;;;;5093673;28;19912;-68
2022/12/03 04:48:23;;;;;;;;;;;8.40;99.90;;;;;;5097880;28;19938;-69
2022/12/03 04:50:48;;;;;;;;;;;8.50;99.90;;;;;;5111825;28;19908;-69
2022/12/03 04:53:14;;;;;;;;;;;8.50;99.90;;;;;;5113880;28;19908;-68
2022/12/03 04:55:39;;;;;;;;;;;8.40;99.90;;;;;;5113017;28;19912;-68
2022/12/03 04:58:05;;;;;;;;;;;8.50;99.90;;;;;;5112230;28;19908;-68
2022/12/03 05:00:31;;;;;;;;;;;8.50;99.90;;;;;;5093640;28;19930;-68
2022/12/03 05:02:57;;;;;;;;;;;8.40;99.90;;;;;;5109475;28;20394;-68
2022/12/03 05:05:22;;;;;;;;;;;8.40;99.90;;;;;;5103121;28;19923;-69
2022/12/03 05:07:48;;;;;;;;;;;8.40;99.90;;;;;;5112497;28;19916;-69
2022/12/03 05:10:13;;;;;;;;;;;8.40;99.90;;;;;;5110396;28;19919;-68
2022/12/03 05:12:39;;;;;;;;;;;8.40;99.90;;;;;;5113070;28;20049;-69
2022/12/03 05:15:05;;;;;;;;;;;8.40;99.90;;;;;;5111786;28;19912;-68
2022/12/03 05:17:30;;;;;;;;;;;8.40;99.90;;;;;;5102020;28;20363;-68
2022/12/03 05:22:40;;;;;;;;;;;8.30;99.90;;;;;;5103373;28;20547;-68
2022/12/03 05:25:06;;;;;;;;;;;8.30;99.90;;;;;;5110273;28;19920;-69
2022/12/03 05:27:33;;;;;;;;;;;8.40;99.90;;;;;;5110549;28;19916;-68
2022/12/03 05:29:59;;;;;;;;;;;8.40;99.90;;;;;;5106999;28;20301;-68
2022/12/03 05:32:24;;;;;;;;;;;8.40;99.90;;;;;;5111620;28;20022;-68
2022/12/03 05:34:50;;;;;;;;;;;8.40;99.90;;;;;;5113183;28;20274;-68
2022/12/03 05:37:16;;;;;;;;;;;8.40;99.90;;;;;;5112015;28;19912;-68
2022/12/03 05:39:41;;;;;;;;;;;8.30;99.90;;;;;;5110666;28;19919;-69
2022/12/03 05:44:52;;;;;;;;;;;8.30;99.90;;;;;;5107683;28;19950;-69
2022/12/03 05:47:18;;;;;;;;;;;8.40;99.90;;;;;;5102495;28;19916;-69
2022/12/03 05:49:44;;;;;;;;;;;8.40;99.90;;;;;;5100349;28;19912;-68
2022/12/03 05:52:09;;;;;;;;;;;8.40;99.90;;;;;;5099858;28;19912;-68
2022/12/03 05:54:35;;;;;;;;;;;8.40;99.90;;;;;;5103224;28;20843;-69
2022/12/03 05:57:00;;;;;;;;;;;8.40;99.90;;;;;;5104000;27;20271;-69
2022/12/03 05:59:27;;;;;;;;;;;8.40;99.90;;;;;;5105043;27;19919;-69
2022/12/03 06:01:53;;;;;;;;;;;8.50;99.90;;;;;;5086006;28;19976;-68
2022/12/03 06:04:18;;;;;;;;;;;8.60;99.90;;;;;;5103753;27;19938;-68
2022/12/03 06:06:44;;;;;;;;;;;8.60;99.90;;;;;;5113100;27;19913;-68
2022/12/03 06:09:10;;;;;;;;;;;8.60;99.90;;;;;;5116817;27;19916;-68
2022/12/03 06:11:36;;;;;;;;;;;8.60;99.90;;;;;;5104339;27;19912;-68
2022/12/03 06:14:02;;;;;;;;;;;8.50;99.90;;;;;;5103979;27;19962;-69
2022/12/03 06:16:28;;;;;;;;;;;8.60;99.90;;;;;;5104615;27;19955;-68
2022/12/03 06:18:53;;;;;;;;;;;8.60;99.90;;;;;;5103116;27;19916;-68
2022/12/03 06:21:19;;;;;;;;;;;8.60;99.90;;;;;;5100577;27;19965;-68
2022/12/03 06:23:45;;;;;;;;;;;8.60;99.90;;;;;;5103754;27;19916;-68
2022/12/03 06:26:10;;;;;;;;;;;8.60;99.90;;;;;;5106261;28;19912;-68
2022/12/03 06:28:36;;;;;;;;;;;8.60;99.90;;;;;;5103560;27;19922;-68
2022/12/03 06:31:02;;;;;;;;;;;8.60;99.90;;;;;;5103567;27;20448;-68
2022/12/03 06:33:27;;;;;;;;;;;8.60;99.90;;;;;;5101949;27;19934;-69
2022/12/03 06:35:53;;;;;;;;;;;8.60;99.90;;;;;;5103171;27;19912;-68
2022/12/03 06:38:19;;;;;;;;;;;8.60;99.90;;;;;;5105118;27;19965;-68
2022/12/03 06:40:44;;;;;;;;;;;8.50;99.90;;;;;;5103085;27;19927;-68
2022/12/03 06:43:10;;;;;;;;;;;8.50;99.90;;;;;;5103446;27;19930;-69
2022/12/03 06:45:36;;;;;;;;;;;8.60;99.90;;;;;;5104875;27;19922;-69
2022/12/03 06:48:01;;;;;;;;;;;8.60;99.90;;;;;;5100932;27;19916;-68
2022/12/03 06:50:27;;;;;;;;;;;8.60;99.90;;;;;;5104164;27;20048;-68
2022/12/03 06:52:53;;;;;;;;;;;8.60;99.90;;;;;;5098963;27;19918;-68
2022/12/03 06:55:18;;;;;;;;;;;8.60;99.90;;;;;;5103356;28;19936;-69
2022/12/03 06:57:44;;;;;;;;;;;8.50;99.90;;;;;;5104671;27;19919;-68
2022/12/03 07:00:10;;;;;;;;;;;8.50;99.90;;;;;;5102258;27;19919;-69
2022/12/03 07:02:35;;;;;;;;;;;8.50;99.90;;;;;;5104242;27;19921;-68
2022/12/03 07:05:02;;;;;;;;;;;8.50;99.90;;;;;;5103119;27;19916;-68
2022/12/03 07:07:27;;;;;;;;;;;8.50;99.90;;;;;;5102540;27;20284;-68
2022/12/03 07:09:53;;;;;;;;;;;8.50;99.90;;;;;;5111639;28;19914;-68
2022/12/03 07:12:18;;;;;;;;;;;8.50;99.90;;;;;;5110362;27;20340;-68
2022/12/03 07:14:44;;;;;;;;;;;8.50;99.90;;;;;;5114732;28;20370;-69
2022/12/03 07:17:10;;;;;;;;;;;8.60;99.90;;;;;;5114114;27;19911;-69
2022/12/03 07:19:35;;;;;;;;;;;8.60;99.90;;;;;;5112568;28;19912;-69
2022/12/03 07:22:01;;;;;;;;;;;8.60;99.90;;;;;;5111892;28;19912;-68
2022/12/03 07:24:27;;;;;;;;;;;8.60;99.90;;;;;;5108632;28;19980;-68
2022/12/03 07:26:53;;;;;;;;;;;8.60;99.90;;;;;;5110619;28;19919;-69
2022/12/03 07:29:18;;;;;;;;;;;8.60;99.90;;;;;;5106594;28;19922;-68
2022/12/03 07:31:44;;;;;;;;;;;8.60;99.90;;;;;;5106490;28;20324;-68
2022/12/03 07:34:10;;;;;;;;;;;8.70;99.90;;;;;;5114314;27;19918;-68
2022/12/03 07:36:35;;;;;;;;;;;8.70;99.90;;;;;;5114903;28;19943;-68
2022/12/03 07:39:01;;;;;;;;;;;8.70;99.90;;;;;;5098895;28;20286;-69
2022/12/03 07:41:27;;;;;;;;;;;8.80;99.90;;;;;;5107101;28;19961;-69
2022/12/03 07:43:52;;;;;;;;;;;8.80;99.90;;;;;;5105993;28;19923;-69
2022/12/03 07:46:18;;;;;;;;;;;8.90;99.90;;;;;;5100914;28;20578;-68
2022/12/03 07:48:44;;;;;;;;;;;8.90;99.90;;;;;;5093052;28;19965;-69
2022/12/03 07:51:09;;;;;;;;;;;8.90;99.90;;;;;;5094948;28;19912;-69
2022/12/03 07:53:35;;;;;;;;;;;9.00;99.90;;;;;;5094722;28;19912;-69
2022/12/03 07:56:02;;;;;;;;;;;9.00;99.90;;;;;;5110143;27;19912;-68
2022/12/03 07:58:27;;;;;;;;;;;9.00;99.90;;;;;;5116633;27;19915;-69
2022/12/03 08:00:53;;;;;;;;;;;9.00;99.90;;;;;;5105672;28;19912;-68
2022/12/03 08:03:19;;;;;;;;;;;9.10;99.90;;;;;;5114531;28;20393;-68
2022/12/03 08:05:44;;;;;;;;;;;9.00;99.90;;;;;;5113375;27;19916;-68
2022/12/03 08:08:10;;;;;;;;;;;9.00;99.90;;;;;;5109208;27;20384;-69
2022/12/03 08:10:36;;;;;;;;;;;9.10;99.90;;;;;;5090580;28;19912;-69
2022/12/03 08:13:01;;;;;;;;;;;9.10;99.90;;;;;;5112869;28;19920;-69
2022/12/03 08:15:28;;;;;;;;;;;9.20;99.90;;;;;;5111963;28;19911;-69
2022/12/03 08:17:55;;;;;;;;;;;9.20;99.90;;;;;;5110950;28;19915;-69
2022/12/03 08:20:23;;;;;;;;;;;9.30;99.90;;;;;;5112242;28;19919;-69
2022/12/03 08:22:49;;;;;;;;;;;9.30;99.90;;;;;;5112033;27;19911;-69
2022/12/03 08:25:18;;;;;;;;;;;9.30;99.90;;;;;;5111102;27;19911;-68
2022/12/03 08:27:44;;;;;;;;;;;9.40;99.90;;;;;;5111820;28;20352;-69
2022/12/03 08:30:11;;;;;;;;;;;9.30;99.90;;;;;;5109848;28;19911;-70
2022/12/03 08:32:37;;;;;;;;;;;9.30;99.90;;;;;;5113628;28;19911;-67
2022/12/03 08:35:09;;;;;;;;;;;9.30;99.90;;;;;;5109306;27;19919;-68
2022/12/03 08:37:35;;;;;;;;;;;9.30;99.90;;;;;;5112012;27;19912;-65
2022/12/03 08:40:00;;;;;;;;;;;9.30;99.90;;;;;;5092897;28;20527;-66
2022/12/03 08:42:41;;;;;;;;;;;9.30;99.90;;;;;;5111779;27;19927;-70
2022/12/03 08:45:26;;;;;;;;;;;9.30;99.90;;;;;;5116340;27;19911;-67
2022/12/03 08:47:55;;;;;;;;;;;9.20;99.90;;;;;;5126052;27;19935;-68
2022/12/03 08:50:27;;;;;;;;;;;9.30;99.90;;;;;;5114768;27;19911;-67
2022/12/03 08:52:56;;;;;;;;;;;9.30;99.90;;;;;;5115266;28;19915;-67
2022/12/03 08:55:35;;;;;;;;;;;9.30;99.90;;;;;;5114359;27;19980;-69
2022/12/03 08:58:13;;;;;;;;;;;9.30;99.90;;;;;;5116696;27;19916;-67
2022/12/03 09:00:40;;;;;;;;;;;9.30;99.90;;;;;;5089298;28;19947;-67
2022/12/03 09:03:09;;;;;;;;;;;9.30;99.90;;;;;;5079561;28;20373;-67
2022/12/03 09:05:36;;;;;;;;;;;9.40;99.90;;;;;;5092929;28;19968;-66
2022/12/03 09:08:01;;;;;;;;;;;9.40;99.90;;;;;;5109302;28;20075;-71
2022/12/03 09:10:27;;;;;;;;;;;9.40;99.90;;;;;;5104949;28;19916;-67
2022/12/03 09:12:52;;;;;;;;;;;9.40;99.90;;;;;;5113629;27;19911;-68
2022/12/03 09:15:18;;;;;;;;;;;9.50;99.90;;;;;;5109509;28;19919;-68
2022/12/03 09:17:44;;;;;;;;;;;9.40;99.90;;;;;;5113470;28;20053;-69
2022/12/03 09:20:10;;;;;;;;;;;9.50;99.90;;;;;;5097066;28;20290;-67
2022/12/03 09:22:35;;;;;;;;;;;9.50;99.90;;;;;;5114275;28;19912;-67
2022/12/03 09:25:01;;;;;;;;;;;9.50;99.90;;;;;;5111241;28;19918;-68
2022/12/03 09:27:27;;;;;;;;;;;9.50;99.90;;;;;;5118052;27;19923;-69
2022/12/03 09:29:53;;;;;;;;;;;9.40;99.90;;;;;;5101093;28;20286;-68
2022/12/03 09:32:18;;;;;;;;;;;9.50;99.90;;;;;;5114811;28;19908;-68
2022/12/03 09:34:44;;;;;;;;;;;9.50;99.90;;;;;;5114865;28;19973;-66
2022/12/03 09:37:10;;;;;;;;;;;9.50;99.90;;;;;;5108578;28;19940;-68
2022/12/03 09:39:35;;;;;;;;;;;9.50;99.90;;;;;;5097162;28;20729;-68
2022/12/03 09:42:01;;;;;;;;;;;9.50;99.90;;;;;;5100151;28;19908;-69
2022/12/03 09:44:28;;;;;;;;;;;9.50;99.90;;;;;;5133273;28;19911;-68
2022/12/03 09:46:58;;;;;;;;;;;9.40;99.90;;;;;;5118731;28;20025;-69
2022/12/03 09:49:24;;;;;;;;;;;9.50;99.90;;;;;;5094580;28;19916;-69
2022/12/03 09:51:50;;;;;;;;;;;9.40;99.90;;;;;;5102480;28;20065;-69
2022/12/03 09:54:24;;;;;;;;;;;9.40;99.90;;;;;;5108109;28;20093;-69
2022/12/03 09:56:50;;;;;;;;;;;9.50;99.90;;;;;;5092269;28;19973;-68
2022/12/03 09:59:16;;;;;;;;;;;9.50;99.90;;;;;;5098034;28;20007;-69
2022/12/03 10:01:42;;;;;;;;;;;9.60;99.90;;;;;;5097668;28;20427;-69
2022/12/03 10:04:08;;;;;;;;;;;9.60;99.90;;;;;;5115103;28;19911;-68
2022/12/03 10:06:34;;;;;;;;;;;9.70;99.90;;;;;;5114694;28;19912;-69
2022/12/03 10:08:59;;;;;;;;;;;9.80;99.90;;;;;;5116467;28;19915;-68
2022/12/03 10:11:25;;;;;;;;;;;9.80;99.90;;;;;;5094066;28;19916;-69
2022/12/03 10:13:52;;;;;;;;;;;9.90;99.90;;;;;;5113474;28;19939;-68
2022/12/03 10:16:19;;;;;;;;;;;10.00;99.90;;;;;;5114912;28;19916;-68
2022/12/03 10:18:47;;;;;;;;;;;10.00;99.90;;;;;;5115557;28;19973;-68
2022/12/03 10:21:17;;;;;;;;;;;10.00;99.90;;;;;;5114923;28;20303;-69
2022/12/03 10:23:44;;;;;;;;;;;10.10;99.90;;;;;;5088422;28;19912;-69
2022/12/03 10:26:10;;;;;;;;;;;10.10;99.90;;;;;;5096008;28;19922;-68
2022/12/03 10:28:37;;;;;;;;;;;10.10;99.90;;;;;;5113775;28;20006;-68
2022/12/03 10:31:07;;;;;;;;;;;10.20;99.90;;;;;;5115266;28;19978;-69
2022/12/03 10:33:36;;;;;;;;;;;10.20;99.90;;;;;;5112575;28;19989;-68
2022/12/03 10:36:20;;;;;;;;;;;10.20;99.90;;;;;;5115992;28;20005;-68
2022/12/03 10:39:04;;;;;;;;;;;10.20;99.90;;;;;;5115716;28;20288;-68
2022/12/03 10:41:29;;;;;;;;;;;10.30;99.90;;;;;;5119669;28;20016;-68
2022/12/03 10:44:09;;;;;;;;;;;10.30;99.90;;;;;;5118107;28;19915;-68
2022/12/03 10:46:35;;;;;;;;;;;10.30;99.90;;;;;;5099185;28;19931;-68
2022/12/03 10:49:09;;;;;;;;;;;10.30;99.90;;;;;;5118310;28;19912;-68
2022/12/03 10:51:36;;;;;;;;;;;10.20;99.90;;;;;;5098971;28;19920;-68
2022/12/03 10:54:02;;;;;;;;;;;10.10;99.90;;;;;;5118419;28;19957;-69
2022/12/03 10:56:28;;;;;;;;;;;10.10;99.90;;;;;;5100219;28;19912;-68
2022/12/03 10:58:54;;;;;;;;;;;10.20;99.90;;;;;;5099966;28;19943;-69
2022/12/03 11:01:23;;;;;;;;;;;10.30;99.90;;;;;;5116262;27;19951;-69
2022/12/03 11:03:50;;;;;;;;;;;10.50;99.90;;;;;;5118260;28;19912;-69
2022/12/03 11:06:16;;;;;;;;;;;10.60;99.90;;;;;;5118081;27;19916;-68
2022/12/03 11:08:52;;;;;;;;;;;10.70;99.90;;;;;;5118931;28;19915;-69
2022/12/03 11:11:25;;;;;;;;;;;10.80;99.90;;;;;;5116691;27;20378;-69
2022/12/03 11:13:50;;;;;;;;;;;10.80;99.90;;;;;;5113812;28;19912;-68
2022/12/03 11:16:35;;;;;;;;;;;10.80;99.90;;;;;;5100448;28;20054;-68
2022/12/03 11:19:01;;;;;;;;;;;10.60;99.90;;;;;;5117563;28;19982;-67
2022/12/03 11:21:27;;;;;;;;;;;10.60;99.90;;;;;;5099409;28;20205;-67
2022/12/03 11:23:53;;;;;;;;;;;10.60;99.90;;;;;;5117495;28;19918;-69
2022/12/03 11:26:27;;;;;;;;;;;10.70;99.90;;;;;;5114648;28;19975;-67
2022/12/03 11:28:56;;;;;;;;;;;10.70;99.90;;;;;;5117581;28;20347;-68
2022/12/03 11:31:37;;;;;;;;;;;10.70;99.90;;;;;;5120296;28;19923;-68
2022/12/03 11:34:28;;;;;;;;;;;10.60;99.90;;;;;;5098761;28;19912;-68
2022/12/03 11:37:08;;;;;;;;;;;10.50;99.90;;;;;;5112023;28;20392;-70
2022/12/03 11:39:43;;;;;;;;;;;10.50;99.90;;;;;;5119693;28;19984;-68
2022/12/03 11:42:27;;;;;;;;;;;10.40;99.90;;;;;;5100967;28;19951;-68
2022/12/03 11:45:07;;;;;;;;;;;10.40;99.90;;;;;;5100505;28;19919;-68
2022/12/03 11:47:36;;;;;;;;;;;10.30;99.90;;;;;;5118474;28;19918;-68
2022/12/03 11:50:16;;;;;;;;;;;10.30;99.90;;;;;;5116905;28;19908;-66
2022/12/03 11:52:44;;;;;;;;;;;10.20;99.90;;;;;;5112571;28;19908;-67
2022/12/03 11:55:15;;;;;;;;;;;10.20;99.90;;;;;;5103635;28;20013;-68
2022/12/03 11:57:42;;;;;;;;;;;10.20;99.90;;;;;;5119259;28;20366;-68
2022/12/03 12:00:14;;;;;;;;;;;10.30;99.90;;;;;;5113546;28;19919;-68
2022/12/03 12:02:39;;;;;;;;;;;10.20;99.90;;;;;;5113625;28;19915;-68
2022/12/03 12:05:19;;;;;;;;;;;10.20;99.90;;;;;;5094526;28;19915;-67
2022/12/03 12:07:46;;;;;;;;;;;10.20;99.90;;;;;;5111580;28;19920;-67
2022/12/03 12:10:31;;;;;;;;;;;10.30;99.90;;;;;;5115548;28;19908;-68
2022/12/03 12:12:56;;;;;;;;;;;10.30;99.90;;;;;;5114420;28;19919;-68
2022/12/03 12:15:32;;;;;;;;;;;10.40;99.90;;;;;;5116440;28;20062;-68
2022/12/03 12:18:17;;;;;;;;;;;10.50;99.90;;;;;;5104965;27;19983;-67
2022/12/03 12:20:43;;;;;;;;;;;10.50;99.90;;;;;;5112978;28;19918;-68
2022/12/03 12:23:26;;;;;;;;;;;10.60;99.90;;;;;;5114993;28;19912;-68
2022/12/03 12:25:52;;;;;;;;;;;10.60;99.90;;;;;;5112609;28;19908;-67
2022/12/03 12:28:17;;;;;;;;;;;10.60;99.90;;;;;;5101371;28;20396;-68
2022/12/03 12:30:43;;;;;;;;;;;10.60;99.90;;;;;;5102847;28;19908;-68
2022/12/03 12:33:09;;;;;;;;;;;10.70;99.90;;;;;;5112461;28;19912;-68
2022/12/03 12:35:35;;;;;;;;;;;10.80;99.90;;;;;;5106558;27;19926;-69
2022/12/03 12:38:10;;;;;;;;;;;10.80;99.90;;;;;;5094716;28;19912;-68
2022/12/03 12:40:37;;;;;;;;;;;10.90;99.90;;;;;;5114765;28;19911;-68
2022/12/03 12:43:03;;;;;;;;;;;10.90;99.90;;;;;;5112014;28;19919;-68
2022/12/03 12:45:40;;;;;;;;;;;11.00;99.90;;;;;;5127155;27;19923;-68
2022/12/03 12:48:08;;;;;;;;;;;11.00;99.90;;;;;;5090117;28;19916;-68
2022/12/03 12:50:35;;;;;;;;;;;11.10;99.90;;;;;;5112640;28;19915;-68
2022/12/03 12:53:10;;;;;;;;;;;11.10;99.90;;;;;;5108507;28;19918;-68
2022/12/03 12:55:36;;;;;;;;;;;11.10;99.90;;;;;;5111763;28;19974;-67
2022/12/03 12:58:04;;;;;;;;;;;11.10;99.90;;;;;;5107740;28;19939;-67
2022/12/03 13:00:30;;;;;;;;;;;11.00;99.90;;;;;;5092913;28;20068;-67
2022/12/03 13:03:00;;;;;;;;;;;11.10;99.90;;;;;;5109021;28;19955;-67
2022/12/03 13:05:31;;;;;;;;;;;11.10;99.90;;;;;;5114603;27;19926;-67
2022/12/03 13:07:56;;;;;;;;;;;11.10;99.90;;;;;;5110483;28;19966;-67
2022/12/03 13:10:33;;;;;;;;;;;11.10;99.90;;;;;;5105199;28;19959;-67
2022/12/03 13:13:14;;;;;;;;;;;11.10;99.90;;;;;;5106310;28;19934;-68
2022/12/03 13:15:39;;;;;;;;;;;11.10;99.90;;;;;;5109595;28;19919;-68
2022/12/03 13:18:18;;;;;;;;;;;11.00;99.90;;;;;;5104652;28;19916;-67
2022/12/03 13:20:44;;;;;;;;;;;11.00;99.90;;;;;;5108969;28;19912;-68
2022/12/03 13:23:24;;;;;;;;;;;11.00;99.90;;;;;;5107949;28;19972;-67
2022/12/03 13:25:51;;;;;;;;;;;11.00;99.90;;;;;;5106682;28;20402;-68
2022/12/03 13:28:17;;;;;;;;;;;11.00;99.90;;;;;;5107747;28;20045;-68
2022/12/03 13:30:43;;;;;;;;;;;11.00;99.90;;;;;;5094245;28;20395;-67
2022/12/03 13:33:14;;;;;;;;;;;10.90;99.90;;;;;;5108688;28;19937;-68
2022/12/03 13:35:42;;;;;;;;;;;11.00;99.90;;;;;;5110735;28;19996;-68
2022/12/03 13:38:15;;;;;;;;;;;11.00;99.90;;;;;;5110475;28;19939;-66
2022/12/03 13:40:41;;;;;;;;;;;10.90;99.90;;;;;;5100159;28;20379;-68
2022/12/03 13:43:13;;;;;;;;;;;10.80;99.90;;;;;;5105695;28;19968;-68
2022/12/03 13:45:39;;;;;;;;;;;10.80;99.90;;;;;;5110873;28;19912;-67
2022/12/03 13:48:17;;;;;;;;;;;10.80;99.90;;;;;;5107679;28;20007;-68
2022/12/03 13:50:44;;;;;;;;;;;10.90;99.90;;;;;;5104309;28;19943;-68
2022/12/03 13:53:10;;;;;;;;;;;10.80;99.90;;;;;;5102356;28;19912;-66
2022/12/03 13:55:38;;;;;;;;;;;10.80;99.90;;;;;;5107895;28;20002;-67
2022/12/03 13:58:03;;;;;;;;;;;10.70;99.90;;;;;;5106937;28;19923;-68
2022/12/03 14:00:30;;;;;;;;;;;10.70;99.90;;;;;;5107767;28;20029;-68
2022/12/03 14:02:55;;;;;;;;;;;10.50;99.90;;;;;;5108997;28;20010;-68
2022/12/03 14:05:21;;;;;;;;;;;10.50;99.90;;;;;;5106833;28;20331;-68
2022/12/03 14:07:46;;;;;;;;;;;10.50;99.90;;;;;;5105805;28;20287;-68
2022/12/03 14:10:12;;;;;;;;;;;10.50;99.90;;;;;;5114752;28;19911;-67
2022/12/03 14:12:38;;;;;;;;;;;10.40;99.90;;;;;;5110183;28;20640;-68
2022/12/03 14:15:04;;;;;;;;;;;10.40;99.90;;;;;;5111769;28;19915;-68
2022/12/03 14:17:29;;;;;;;;;;;10.30;99.90;;;;;;5115823;28;19912;-68
2022/12/03 14:19:56;;;;;;;;;;;10.30;99.90;;;;;;5113043;28;20299;-66
2022/12/03 14:22:23;;;;;;;;;;;10.20;99.90;;;;;;5111263;27;19915;-65
2022/12/03 14:24:53;;;;;;;;;;;10.20;99.90;;;;;;5086308;28;20056;-68
2022/12/03 14:27:19;;;;;;;;;;;10.20;99.90;;;;;;5112111;28;20158;-68
2022/12/03 14:29:45;;;;;;;;;;;10.30;99.90;;;;;;5113072;28;19915;-67
2022/12/03 14:32:10;;;;;;;;;;;10.30;99.90;;;;;;5115318;28;20341;-69
2022/12/03 14:34:36;;;;;;;;;;;10.30;99.90;;;;;;5095068;28;20375;-68
2022/12/03 14:37:02;;;;;;;;;;;10.30;99.90;;;;;;5109754;27;20344;-68
2022/12/03 14:39:27;;;;;;;;;;;10.30;99.90;;;;;;5107029;27;19916;-69
2022/12/03 14:44:37;;;;;;;;;;;10.30;99.90;;;;;;5114834;27;20454;-68
2022/12/03 14:47:03;;;;;;;;;;;10.30;99.90;;;;;;5106908;28;20023;-67
2022/12/03 14:49:29;;;;;;;;;;;10.30;99.90;;;;;;5082030;28;19912;-67